sensor_id;sensor_type;location;lat;lon;timestamp;pressure;altitude;pressure_sealevel;temperature;humidity
69060;BME280;56135;37.534;-122.308;2023-04-03T00:01:40;101831.16;;;13.23;100.00
69060;BME280;56135;37.534;-122.308;2023-04-03T00:04:06;101831.25;;;13.10;100.00
69060;BME280;56135;37.534;-122.308;2023-04-03T00:06:33;101834.81;;;13.01;100.00
69060;BME280;56135;37.534;-122.308;2023-04-03T00:08:59;101835.72;;;12.93;100.00
69060;BME280;56135;37.534;-122.308;2023-04-03T00:11:25;101837.50;;;12.95;100.00
69060;BME280;56135;37.534;-122.308;2023-04-03T00:13:52;101831.34;;;12.92;100.00
69060;BME280;56135;37.534;-122.308;2023-04-03T00:16:18;101827.75;;;12.97;100.00
69060;BME280;56135;37.534;-122.308;2023-04-03T00:18:44;101829.56;;;12.92;100.00
69060;BME280;56135;37.534;-122.308;2023-04-03T00:21:13;101824.25;;;12.94;100.00
69060;BME280;56135;37.534;-122.308;2023-04-03T00:23:40;101823.38;;;12.89;100.00
69060;BME280;56135;37.534;-122.308;2023-04-03T00:26:06;101834.91;;;12.77;100.00
69060;BME280;56135;37.534;-122.308;2023-04-03T00:28:32;101821.50;;;13.09;100.00
69060;BME280;56135;37.534;-122.308;2023-04-03T00:30:58;101816.25;;;12.97;100.00
69060;BME280;56135;37.534;-122.308;2023-04-03T00:33:25;101811.84;;;12.97;100.00
69060;BME280;56135;37.534;-122.308;2023-04-03T00:35:51;101814.44;;;13.04;100.00
69060;BME280;56135;37.534;-122.308;2023-04-03T00:38:17;101810.78;;;13.23;100.00
69060;BME280;56135;37.534;-122.308;2023-04-03T00:40:46;101808.31;;;13.00;100.00
69060;BME280;56135;37.534;-122.308;2023-04-03T00:43:16;101812.69;;;13.04;100.00
69060;BME280;56135;37.534;-122.308;2023-04-03T00:45:48;101809.25;;;12.83;100.00
69060;BME280;56135;37.534;-122.308;2023-04-03T00:48:46;101811.94;;;12.80;100.00
69060;BME280;56135;37.534;-122.308;2023-04-03T00:51:20;101799.59;;;12.75;100.00
69060;BME280;56135;37.534;-122.308;2023-04-03T00:53:54;101797.94;;;12.52;100.00
69060;BME280;56135;37.534;-122.308;2023-04-03T00:56:24;101787.38;;;12.32;100.00
69060;BME280;56135;37.534;-122.308;2023-04-03T00:59:11;101783.00;;;12.31;100.00
69060;BME280;56135;37.534;-122.308;2023-04-03T01:01:39;101782.97;;;12.29;100.00
69060;BME280;56135;37.534;-122.308;2023-04-03T01:04:06;101790.00;;;12.47;100.00
69060;BME280;56135;37.534;-122.308;2023-04-03T01:06:52;101779.38;;;12.50;100.00
69060;BME280;56135;37.534;-122.308;2023-04-03T01:09:21;101789.91;;;12.67;100.00
69060;BME280;56135;37.534;-122.308;2023-04-03T01:11:47;101780.13;;;12.74;100.00
69060;BME280;56135;37.534;-122.308;2023-04-03T01:14:14;101783.78;;;12.58;100.00
69060;BME280;56135;37.534;-122.308;2023-04-03T01:16:40;101778.47;;;12.53;100.00
69060;BME280;56135;37.534;-122.308;2023-04-03T01:19:15;101776.81;;;12.29;100.00
69060;BME280;56135;37.534;-122.308;2023-04-03T01:21:52;101775.06;;;12.25;100.00
69060;BME280;56135;37.534;-122.308;2023-04-03T01:24:35;101774.16;;;12.27;100.00
69060;BME280;56135;37.534;-122.308;2023-04-03T01:27:05;101772.44;;;12.14;100.00
69060;BME280;56135;37.534;-122.308;2023-04-03T01:29:31;101781.25;;;12.14;100.00
69060;BME280;56135;37.534;-122.308;2023-04-03T01:32:00;101781.28;;;12.11;100.00
69060;BME280;56135;37.534;-122.308;2023-04-03T01:34:27;101773.38;;;12.00;100.00
69060;BME280;56135;37.534;-122.308;2023-04-03T01:36:54;101768.94;;;12.02;100.00
69060;BME280;56135;37.534;-122.308;2023-04-03T01:39:20;101768.97;;;11.98;100.00
69060;BME280;56135;37.534;-122.308;2023-04-03T01:41:47;101764.53;;;11.86;100.00
69060;BME280;56135;37.534;-122.308;2023-04-03T01:44:14;101766.28;;;11.92;100.00
69060;BME280;56135;37.534;-122.308;2023-04-03T01:46:40;101765.41;;;11.83;100.00
69060;BME280;56135;37.534;-122.308;2023-04-03T01:49:08;101759.25;;;11.77;100.00
69060;BME280;56135;37.534;-122.308;2023-04-03T01:51:34;101754.88;;;11.63;100.00
69060;BME280;56135;37.534;-122.308;2023-04-03T01:54:00;101750.47;;;11.44;100.00
69060;BME280;56135;37.534;-122.308;2023-04-03T01:56:27;101748.69;;;11.30;100.00
69060;BME280;56135;37.534;-122.308;2023-04-03T01:58:54;101752.19;;;11.11;100.00
69060;BME280;56135;37.534;-122.308;2023-04-03T02:01:21;101753.97;;;11.09;100.00
69060;BME280;56135;37.534;-122.308;2023-04-03T02:03:47;101748.69;;;11.02;100.00
69060;BME280;56135;37.534;-122.308;2023-04-03T02:06:13;101742.50;;;10.97;100.00
69060;BME280;56135;37.534;-122.308;2023-04-03T02:08:40;101743.34;;;10.87;100.00
69060;BME280;56135;37.534;-122.308;2023-04-03T02:11:07;101746.00;;;10.87;100.00
69060;BME280;56135;37.534;-122.308;2023-04-03T02:13:33;101741.63;;;10.97;100.00
69060;BME280;56135;37.534;-122.308;2023-04-03T02:16:06;101747.78;;;11.02;100.00
69060;BME280;56135;37.534;-122.308;2023-04-03T02:18:32;101734.56;;;11.00;100.00
69060;BME280;56135;37.534;-122.308;2023-04-03T02:20:59;101736.31;;;11.01;100.00
69060;BME280;56135;37.534;-122.308;2023-04-03T02:23:25;101730.16;;;10.98;100.00
69060;BME280;56135;37.534;-122.308;2023-04-03T02:25:51;101737.19;;;10.99;100.00
69060;BME280;56135;37.534;-122.308;2023-04-03T02:28:17;101732.81;;;10.99;100.00
69060;BME280;56135;37.534;-122.308;2023-04-03T02:30:43;101731.88;;;10.82;100.00
69060;BME280;56135;37.534;-122.308;2023-04-03T02:33:10;101730.13;;;10.89;100.00
69060;BME280;56135;37.534;-122.308;2023-04-03T02:35:36;101730.13;;;10.73;100.00
69060;BME280;56135;37.534;-122.308;2023-04-03T02:38:02;101732.75;;;10.68;100.00
69060;BME280;56135;37.534;-122.308;2023-04-03T02:40:28;101730.06;;;10.59;100.00
69060;BME280;56135;37.534;-122.308;2023-04-03T02:42:55;101732.75;;;10.64;100.00
69060;BME280;56135;37.534;-122.308;2023-04-03T02:45:21;101725.66;;;10.52;100.00
69060;BME280;56135;37.534;-122.308;2023-04-03T02:47:47;101737.06;;;10.37;100.00
69060;BME280;56135;37.534;-122.308;2023-04-03T02:50:13;101730.03;;;10.44;100.00
69060;BME280;56135;37.534;-122.308;2023-04-03T02:52:40;101739.75;;;10.46;100.00
69060;BME280;56135;37.534;-122.308;2023-04-03T02:55:06;101730.88;;;10.37;100.00
69060;BME280;56135;37.534;-122.308;2023-04-03T02:57:33;101734.34;;;10.32;100.00
69060;BME280;56135;37.534;-122.308;2023-04-03T02:59:59;101732.63;;;10.34;100.00
69060;BME280;56135;37.534;-122.308;2023-04-03T03:02:25;101726.47;;;10.35;100.00
69060;BME280;56135;37.534;-122.308;2023-04-03T03:04:51;101733.53;;;10.37;100.00
69060;BME280;56135;37.534;-122.308;2023-04-03T03:07:18;101723.84;;;10.39;100.00
69060;BME280;56135;37.534;-122.308;2023-04-03T03:09:44;101730.84;;;10.32;100.00
69060;BME280;56135;37.534;-122.308;2023-04-03T03:12:10;101733.44;;;10.24;100.00
69060;BME280;56135;37.534;-122.308;2023-04-03T03:14:36;101731.72;;;10.28;100.00
69060;BME280;56135;37.534;-122.308;2023-04-03T03:17:06;101732.53;;;10.24;100.00
69060;BME280;56135;37.534;-122.308;2023-04-03T03:19:32;101737.78;;;10.14;100.00
69060;BME280;56135;37.534;-122.308;2023-04-03T03:21:58;101725.47;;;10.15;100.00
69060;BME280;56135;37.534;-122.308;2023-04-03T03:24:24;101728.13;;;10.15;100.00
69060;BME280;56135;37.534;-122.308;2023-04-03T03:26:51;101731.63;;;10.14;100.00
69060;BME280;56135;37.534;-122.308;2023-04-03T03:29:17;101723.66;;;10.01;100.00
69060;BME280;56135;37.534;-122.308;2023-04-03T03:31:43;101718.38;;;10.05;100.00
69060;BME280;56135;37.534;-122.308;2023-04-03T03:34:10;101727.16;;;9.99;100.00
69060;BME280;56135;37.534;-122.308;2023-04-03T03:36:42;101727.13;;;9.96;100.00
69060;BME280;56135;37.534;-122.308;2023-04-03T03:39:09;101721.78;;;9.82;100.00
69060;BME280;56135;37.534;-122.308;2023-04-03T03:41:38;101734.91;;;9.73;100.00
69060;BME280;56135;37.534;-122.308;2023-04-03T03:44:05;101730.44;;;9.62;100.00
69060;BME280;56135;37.534;-122.308;2023-04-03T03:46:31;101737.44;;;9.54;100.00
69060;BME280;56135;37.534;-122.308;2023-04-03T03:48:59;101738.34;;;9.58;100.00
69060;BME280;56135;37.534;-122.308;2023-04-03T03:51:28;101740.91;;;9.50;100.00
69060;BME280;56135;37.534;-122.308;2023-04-03T03:53:54;101746.13;;;9.42;100.00
69060;BME280;56135;37.534;-122.308;2023-04-03T03:56:20;101756.75;;;9.50;100.00
69060;BME280;56135;37.534;-122.308;2023-04-03T03:58:49;101770.75;;;9.43;100.00
69060;BME280;56135;37.534;-122.308;2023-04-03T04:01:18;101775.06;;;9.36;100.00
69060;BME280;56135;37.534;-122.308;2023-04-03T04:03:50;101782.88;;;9.22;100.00
69060;BME280;56135;37.534;-122.308;2023-04-03T04:06:20;101769.53;;;9.07;100.00
69060;BME280;56135;37.534;-122.308;2023-04-03T04:08:47;101767.75;;;9.04;100.00
69060;BME280;56135;37.534;-122.308;2023-04-03T04:11:13;101765.88;;;8.92;100.00
69060;BME280;56135;37.534;-122.308;2023-04-03T04:13:42;101768.50;;;8.92;100.00
69060;BME280;56135;37.534;-122.308;2023-04-03T04:16:15;101773.66;;;8.81;100.00
69060;BME280;56135;37.534;-122.308;2023-04-03T04:18:42;101769.25;;;8.79;100.00
69060;BME280;56135;37.534;-122.308;2023-04-03T04:21:08;101770.06;;;8.72;100.00
69060;BME280;56135;37.534;-122.308;2023-04-03T04:23:34;101775.25;;;8.65;100.00
69060;BME280;56135;37.534;-122.308;2023-04-03T04:26:01;101776.09;;;8.64;100.00
69060;BME280;56135;37.534;-122.308;2023-04-03T04:28:27;101770.81;;;8.60;100.00
69060;BME280;56135;37.534;-122.308;2023-04-03T04:30:56;101773.38;;;8.55;100.00
69060;BME280;56135;37.534;-122.308;2023-04-03T04:33:23;101772.50;;;8.55;100.00
69060;BME280;56135;37.534;-122.308;2023-04-03T04:35:49;101776.88;;;8.54;100.00
69060;BME280;56135;37.534;-122.308;2023-04-03T04:38:15;101787.31;;;8.46;100.00
69060;BME280;56135;37.534;-122.308;2023-04-03T04:40:41;101783.81;;;8.47;100.00
69060;BME280;56135;37.534;-122.308;2023-04-03T04:43:08;101790.84;;;8.50;100.00
69060;BME280;56135;37.534;-122.308;2023-04-03T04:45:34;101789.97;;;8.46;100.00
69060;BME280;56135;37.534;-122.308;2023-04-03T04:48:00;101795.19;;;8.45;100.00
69060;BME280;56135;37.534;-122.308;2023-04-03T04:50:27;101790.72;;;8.41;100.00
69060;BME280;56135;37.534;-122.308;2023-04-03T04:52:53;101801.22;;;8.39;100.00
69060;BME280;56135;37.534;-122.308;2023-04-03T04:55:19;101798.56;;;8.38;100.00
69060;BME280;56135;37.534;-122.308;2023-04-03T04:57:46;101798.56;;;8.36;100.00
69060;BME280;56135;37.534;-122.308;2023-04-03T05:00:12;101795.97;;;8.41;100.00
69060;BME280;56135;37.534;-122.308;2023-04-03T05:02:39;101796.88;;;8.43;100.00
69060;BME280;56135;37.534;-122.308;2023-04-03T05:05:05;101798.56;;;8.36;100.00
69060;BME280;56135;37.534;-122.308;2023-04-03T05:07:32;101791.59;;;8.40;100.00
69060;BME280;56135;37.534;-122.308;2023-04-03T05:09:58;101791.53;;;8.38;100.00
69060;BME280;56135;37.534;-122.308;2023-04-03T05:12:24;101798.56;;;8.36;100.00
69060;BME280;56135;37.534;-122.308;2023-04-03T05:14:50;101794.97;;;8.29;100.00
69060;BME280;56135;37.534;-122.308;2023-04-03T05:17:16;101799.31;;;8.29;100.00
69060;BME280;56135;37.534;-122.308;2023-04-03T05:19:43;101802.97;;;8.35;100.00
69060;BME280;56135;37.534;-122.308;2023-04-03T05:22:09;101813.41;;;8.31;100.00
69060;BME280;56135;37.534;-122.308;2023-04-03T05:24:35;101814.25;;;8.30;100.00
69060;BME280;56135;37.534;-122.308;2023-04-03T05:27:01;101820.59;;;8.43;100.00
69060;BME280;56135;37.534;-122.308;2023-04-03T05:29:28;101813.41;;;8.29;100.00
69060;BME280;56135;37.534;-122.308;2023-04-03T05:31:54;101810.78;;;8.31;100.00
69060;BME280;56135;37.534;-122.308;2023-04-03T05:34:20;101800.19;;;8.26;100.00
69060;BME280;56135;37.534;-122.308;2023-04-03T05:36:47;101809.91;;;8.32;100.00
69060;BME280;56135;37.534;-122.308;2023-04-03T05:39:13;101816.13;;;8.35;100.00
69060;BME280;56135;37.534;-122.308;2023-04-03T05:41:39;101808.13;;;8.29;100.00
69060;BME280;56135;37.534;-122.308;2023-04-03T05:44:06;101809.84;;;8.29;100.00
69060;BME280;56135;37.534;-122.308;2023-04-03T05:46:32;101794.94;;;8.26;100.00
69060;BME280;56135;37.534;-122.308;2023-04-03T05:48:58;101803.72;;;8.28;100.00
69060;BME280;56135;37.534;-122.308;2023-04-03T05:51:30;101791.25;;;8.15;100.00
69060;BME280;56135;37.534;-122.308;2023-04-03T05:54:09;101794.81;;;8.18;100.00
69060;BME280;56135;37.534;-122.308;2023-04-03T05:56:36;101787.78;;;8.17;100.00
69060;BME280;56135;37.534;-122.308;2023-04-03T05:59:02;101791.28;;;8.18;100.00
69060;BME280;56135;37.534;-122.308;2023-04-03T06:01:28;101792.22;;;8.20;100.00
69060;BME280;56135;37.534;-122.308;2023-04-03T06:03:54;101796.56;;;8.18;100.00
69060;BME280;56135;37.534;-122.308;2023-04-03T06:06:21;101785.13;;;8.16;100.00
69060;BME280;56135;37.534;-122.308;2023-04-03T06:08:47;101795.69;;;8.17;100.00
69060;BME280;56135;37.534;-122.308;2023-04-03T06:11:14;101787.75;;;8.14;100.00
69060;BME280;56135;37.534;-122.308;2023-04-03T06:13:40;101793.06;;;8.19;100.00
69060;BME280;56135;37.534;-122.308;2023-04-03T06:16:06;101798.16;;;8.07;100.00
69060;BME280;56135;37.534;-122.308;2023-04-03T06:18:32;101790.28;;;8.07;100.00
69060;BME280;56135;37.534;-122.308;2023-04-03T06:20:58;101786.72;;;8.06;100.00
69060;BME280;56135;37.534;-122.308;2023-04-03T06:23:26;101785.84;;;8.04;100.00
69060;BME280;56135;37.534;-122.308;2023-04-03T06:25:52;101790.25;;;8.05;100.00
69060;BME280;56135;37.534;-122.308;2023-04-03T06:28:18;101792.78;;;7.99;100.00
69060;BME280;56135;37.534;-122.308;2023-04-03T06:30:45;101784.94;;;8.04;100.00
69060;BME280;56135;37.534;-122.308;2023-04-03T06:33:11;101781.38;;;7.98;100.00
69060;BME280;56135;37.534;-122.308;2023-04-03T06:35:37;101783.97;;;7.97;100.00
69060;BME280;56135;37.534;-122.308;2023-04-03T06:38:03;101779.63;;;7.99;100.00
69060;BME280;56135;37.534;-122.308;2023-04-03T06:40:35;101775.22;;;7.98;100.00
69060;BME280;56135;37.534;-122.308;2023-04-03T06:43:01;101769.94;;;7.96;100.00
69060;BME280;56135;37.534;-122.308;2023-04-03T06:45:27;101768.19;;;7.97;100.00
69060;BME280;56135;37.534;-122.308;2023-04-03T06:47:54;101768.13;;;7.91;100.00
69060;BME280;56135;37.534;-122.308;2023-04-03T06:50:20;101772.47;;;7.90;100.00
69060;BME280;56135;37.534;-122.308;2023-04-03T06:52:46;101764.53;;;7.87;100.00
69060;BME280;56135;37.534;-122.308;2023-04-03T06:55:12;101768.13;;;7.92;100.00
69060;BME280;56135;37.534;-122.308;2023-04-03T06:57:39;101768.00;;;7.84;100.00
69060;BME280;56135;37.534;-122.308;2023-04-03T07:00:06;101766.19;;;7.79;100.00
69060;BME280;56135;37.534;-122.308;2023-04-03T07:02:33;101760.00;;;7.77;100.00
69060;BME280;56135;37.534;-122.308;2023-04-03T07:04:59;101756.38;;;7.68;100.00
69060;BME280;56135;37.534;-122.308;2023-04-03T07:07:25;101761.66;;;7.70;100.00
69060;BME280;56135;37.534;-122.308;2023-04-03T07:09:52;101762.47;;;7.66;100.00
69060;BME280;56135;37.534;-122.308;2023-04-03T07:12:18;101758.03;;;7.63;100.00
69060;BME280;56135;37.534;-122.308;2023-04-03T07:14:44;101758.91;;;7.62;100.00
69060;BME280;56135;37.534;-122.308;2023-04-03T07:17:10;101766.84;;;7.65;100.00
69060;BME280;56135;37.534;-122.308;2023-04-03T07:19:36;101765.13;;;7.67;100.00
69060;BME280;56135;37.534;-122.308;2023-04-03T07:22:03;101763.41;;;7.70;100.00
69060;BME280;56135;37.534;-122.308;2023-04-03T07:24:29;101766.03;;;7.68;100.00
69060;BME280;56135;37.534;-122.308;2023-04-03T07:26:55;101767.72;;;7.66;100.00
69060;BME280;56135;37.534;-122.308;2023-04-03T07:29:21;101772.97;;;7.63;100.00
69060;BME280;56135;37.534;-122.308;2023-04-03T07:31:48;101777.38;;;7.65;100.00
69060;BME280;56135;37.534;-122.308;2023-04-03T07:34:15;101779.19;;;7.70;100.00
69060;BME280;56135;37.534;-122.308;2023-04-03T07:36:41;101791.53;;;7.75;100.00
69060;BME280;56135;37.534;-122.308;2023-04-03T07:39:07;101788.91;;;7.74;100.00
69060;BME280;56135;37.534;-122.308;2023-04-03T07:41:34;101785.44;;;7.78;100.00
69060;BME280;56135;37.534;-122.308;2023-04-03T07:44:00;101788.09;;;7.78;100.00
69060;BME280;56135;37.534;-122.308;2023-04-03T07:46:26;101789.78;;;7.76;100.00
69060;BME280;56135;37.534;-122.308;2023-04-03T07:48:52;101794.13;;;7.72;100.00
69060;BME280;56135;37.534;-122.308;2023-04-03T07:51:19;101792.50;;;7.80;100.00
69060;BME280;56135;37.534;-122.308;2023-04-03T07:53:45;101797.66;;;7.74;100.00
69060;BME280;56135;37.534;-122.308;2023-04-03T07:56:12;101790.53;;;7.65;100.00
69060;BME280;56135;37.534;-122.308;2023-04-03T07:58:38;101798.34;;;7.62;100.00
69060;BME280;56135;37.534;-122.308;2023-04-03T08:01:04;101799.28;;;7.66;100.00
69060;BME280;56135;37.534;-122.308;2023-04-03T08:03:31;101793.16;;;7.65;100.00
69060;BME280;56135;37.534;-122.308;2023-04-03T08:06:06;101797.50;;;7.63;100.00
69060;BME280;56135;37.534;-122.308;2023-04-03T08:08:34;101804.44;;;7.60;100.00
69060;BME280;56135;37.534;-122.308;2023-04-03T08:11:01;101787.00;;;7.65;100.00
69060;BME280;56135;37.534;-122.308;2023-04-03T08:13:30;101797.50;;;7.63;100.00
69060;BME280;56135;37.534;-122.308;2023-04-03T08:15:56;101804.56;;;7.67;100.00
69060;BME280;56135;37.534;-122.308;2023-04-03T08:18:24;101801.94;;;7.67;100.00
69060;BME280;56135;37.534;-122.308;2023-04-03T08:20:51;101803.59;;;7.62;100.00
69060;BME280;56135;37.534;-122.308;2023-04-03T08:23:18;101804.41;;;7.57;100.00
69060;BME280;56135;37.534;-122.308;2023-04-03T08:25:44;101812.31;;;7.58;100.00
69060;BME280;56135;37.534;-122.308;2023-04-03T08:28:11;101816.59;;;7.51;100.00
69060;BME280;56135;37.534;-122.308;2023-04-03T08:30:40;101822.75;;;7.52;100.00
69060;BME280;56135;37.534;-122.308;2023-04-03T08:33:08;101813.78;;;7.41;100.00
69060;BME280;56135;37.534;-122.308;2023-04-03T08:35:39;101822.66;;;7.47;100.00
69060;BME280;56135;37.534;-122.308;2023-04-03T08:38:06;101823.16;;;7.26;100.00
69060;BME280;56135;37.534;-122.308;2023-04-03T08:40:33;101821.59;;;7.36;100.00
69060;BME280;56135;37.534;-122.308;2023-04-03T08:48:35;101819.88;;;7.40;100.00
69060;BME280;56135;37.534;-122.308;2023-04-03T08:51:15;101826.88;;;7.38;100.00
69060;BME280;56135;37.534;-122.308;2023-04-03T08:53:58;101824.09;;;7.30;100.00
69060;BME280;56135;37.534;-122.308;2023-04-03T08:56:26;101832.00;;;7.30;100.00
69060;BME280;56135;37.534;-122.308;2023-04-03T08:58:57;101831.09;;;7.29;100.00
69060;BME280;56135;37.534;-122.308;2023-04-03T09:01:43;101824.84;;;7.23;100.00
69060;BME280;56135;37.534;-122.308;2023-04-03T09:04:13;101837.72;;;7.09;100.00
69060;BME280;56135;37.534;-122.308;2023-04-03T09:06:43;101839.56;;;7.14;100.00
69060;BME280;56135;37.534;-122.308;2023-04-03T09:12:26;101831.78;;;7.17;100.00
69060;BME280;56135;37.534;-122.308;2023-04-03T09:20:17;101820.22;;;7.11;100.00
69060;BME280;56135;37.534;-122.308;2023-04-03T09:22:45;101829.84;;;7.09;100.00
69060;BME280;56135;37.534;-122.308;2023-04-03T09:25:36;101826.28;;;7.07;100.00
69060;BME280;56135;37.534;-122.308;2023-04-03T09:28:03;101821.84;;;7.03;100.00
69060;BME280;56135;37.534;-122.308;2023-04-03T09:30:35;101824.41;;;6.99;100.00
69060;BME280;56135;37.534;-122.308;2023-04-03T09:33:04;101820.06;;;7.01;100.00
69060;BME280;56135;37.534;-122.308;2023-04-03T09:35:33;101818.22;;;6.97;100.00
69060;BME280;56135;37.534;-122.308;2023-04-03T09:40:44;101829.53;;;6.93;100.00
69060;BME280;56135;37.534;-122.308;2023-04-03T09:45:45;101825.13;;;6.92;100.00
69060;BME280;56135;37.534;-122.308;2023-04-03T09:48:16;101821.47;;;6.84;100.00
69060;BME280;56135;37.534;-122.308;2023-04-03T09:50:55;101820.56;;;6.80;100.00
69060;BME280;56135;37.534;-122.308;2023-04-03T09:55:59;101830.19;;;6.83;100.00
69060;BME280;56135;37.534;-122.308;2023-04-03T09:58:31;101832.88;;;6.84;100.00
69060;BME280;56135;37.534;-122.308;2023-04-03T10:01:01;101827.50;;;6.78;100.00
69060;BME280;56135;37.534;-122.308;2023-04-03T10:03:35;101827.47;;;6.77;100.00
69060;BME280;56135;37.534;-122.308;2023-04-03T10:06:03;101831.72;;;6.70;100.00
69060;BME280;56135;37.534;-122.308;2023-04-03T10:08:34;101834.50;;;6.78;100.00
69060;BME280;56135;37.534;-122.308;2023-04-03T10:11:13;101830.94;;;6.74;100.00
69060;BME280;56135;37.534;-122.308;2023-04-03T10:14:10;101828.19;;;6.70;100.00
69060;BME280;56135;37.534;-122.308;2023-04-03T10:16:52;101827.28;;;6.67;100.00
69060;BME280;56135;37.534;-122.308;2023-04-03T10:19:58;101852.00;;;6.79;100.00
69060;BME280;56135;37.534;-122.308;2023-04-03T10:22:51;101830.09;;;6.77;100.00
69060;BME280;56135;37.534;-122.308;2023-04-03T10:28:48;101834.34;;;6.70;100.00
69060;BME280;56135;37.534;-122.308;2023-04-03T10:34:04;101824.56;;;6.64;100.00
69060;BME280;56135;37.534;-122.308;2023-04-03T10:36:54;101821.88;;;6.60;100.00
69060;BME280;56135;37.534;-122.308;2023-04-03T10:42:18;101823.53;;;6.56;100.00
69060;BME280;56135;37.534;-122.308;2023-04-03T10:47:57;101823.25;;;6.42;100.00
69060;BME280;56135;37.534;-122.308;2023-04-03T10:56:07;101809.03;;;6.32;100.00
69060;BME280;56135;37.534;-122.308;2023-04-03T10:58:40;101808.91;;;6.26;100.00
69060;BME280;56135;37.534;-122.308;2023-04-03T11:01:16;101807.09;;;6.24;100.00
69060;BME280;56135;37.534;-122.308;2023-04-03T11:03:53;101807.91;;;6.20;100.00
69060;BME280;56135;37.534;-122.308;2023-04-03T11:06:24;101802.88;;;6.30;100.00
69060;BME280;56135;37.534;-122.308;2023-04-03T11:08:55;101805.50;;;6.30;100.00
69060;BME280;56135;37.534;-122.308;2023-04-03T11:11:29;101799.50;;;6.36;100.00
69060;BME280;56135;37.534;-122.308;2023-04-03T11:14:14;101791.59;;;6.34;100.00
69060;BME280;56135;37.534;-122.308;2023-04-03T11:16:46;101794.16;;;6.31;100.00
69060;BME280;56135;37.534;-122.308;2023-04-03T11:19:50;101788.00;;;6.31;100.00
69060;BME280;56135;37.534;-122.308;2023-04-03T11:22:42;101787.09;;;6.27;100.00
69060;BME280;56135;37.534;-122.308;2023-04-03T11:30:25;101782.47;;;6.17;100.00
69060;BME280;56135;37.534;-122.308;2023-04-03T11:33:12;101784.25;;;6.18;100.00
69060;BME280;56135;37.534;-122.308;2023-04-03T11:36:02;101786.72;;;6.12;100.00
69060;BME280;56135;37.534;-122.308;2023-04-03T11:38:36;101791.84;;;6.06;100.00
69060;BME280;56135;37.534;-122.308;2023-04-03T11:41:06;101779.66;;;6.08;100.00
69060;BME280;56135;37.534;-122.308;2023-04-03T11:43:59;101781.47;;;6.12;100.00
69060;BME280;56135;37.534;-122.308;2023-04-03T11:46:58;101784.94;;;6.11;100.00
69060;BME280;56135;37.534;-122.308;2023-04-03T11:49:50;101788.38;;;6.07;100.00
69060;BME280;56135;37.534;-122.308;2023-04-03T12:00:47;101794.28;;;5.98;100.00
69060;BME280;56135;37.534;-122.308;2023-04-03T12:08:52;101797.75;;;5.97;100.00
69060;BME280;56135;37.534;-122.308;2023-04-03T12:11:40;101797.75;;;5.97;100.00
69060;BME280;56135;37.534;-122.308;2023-04-03T12:14:16;101803.84;;;5.97;100.00
69060;BME280;56135;37.534;-122.308;2023-04-03T12:16:45;101804.47;;;5.85;100.00
69060;BME280;56135;37.534;-122.308;2023-04-03T12:29:20;101833.44;;;5.90;100.00
69060;BME280;56135;37.534;-122.308;2023-04-03T12:32:11;101836.88;;;5.88;100.00
69060;BME280;56135;37.534;-122.308;2023-04-03T12:46:04;101842.91;;;5.85;100.00
69060;BME280;56135;37.534;-122.308;2023-04-03T12:48:31;101844.53;;;5.80;100.00
69060;BME280;56135;37.534;-122.308;2023-04-03T12:50:58;101843.69;;;5.81;100.00
69060;BME280;56135;37.534;-122.308;2023-04-03T12:53:28;101848.03;;;5.80;100.00
69060;BME280;56135;37.534;-122.308;2023-04-03T12:56:26;101840.84;;;5.72;100.00
69060;BME280;56135;37.534;-122.308;2023-04-03T12:58:55;101832.75;;;5.62;100.00
69060;BME280;56135;37.534;-122.308;2023-04-03T13:01:25;101842.41;;;5.65;100.00
69060;BME280;56135;37.534;-122.308;2023-04-03T13:03:58;101841.28;;;5.55;100.00
69060;BME280;56135;37.534;-122.308;2023-04-03T13:06:28;101841.47;;;5.61;100.00
69060;BME280;56135;37.534;-122.308;2023-04-03T13:08:58;101838.94;;;5.66;100.00
69060;BME280;56135;37.534;-122.308;2023-04-03T13:11:30;101839.63;;;5.57;100.00
69060;BME280;56135;37.534;-122.308;2023-04-03T13:14:03;101836.69;;;5.46;100.00
69060;BME280;56135;37.534;-122.308;2023-04-03T13:16:33;101838.25;;;5.40;100.00
69060;BME280;56135;37.534;-122.308;2023-04-03T13:18:59;101836.59;;;5.42;100.00
69060;BME280;56135;37.534;-122.308;2023-04-03T13:21:28;101829.22;;;5.27;100.00
69060;BME280;56135;37.534;-122.308;2023-04-03T13:23:57;101837.72;;;5.18;100.00
69060;BME280;56135;37.534;-122.308;2023-04-03T13:26:26;101841.38;;;5.25;100.00
69060;BME280;56135;37.534;-122.308;2023-04-03T13:28:55;101845.16;;;5.34;100.00
69060;BME280;56135;37.534;-122.308;2023-04-03T13:31:27;101855.66;;;5.36;100.00
69060;BME280;56135;37.534;-122.308;2023-04-03T13:36:32;101862.50;;;5.31;100.00
69060;BME280;56135;37.534;-122.308;2023-04-03T13:41:39;101857.53;;;5.40;100.00
69060;BME280;56135;37.534;-122.308;2023-04-03T13:44:37;101862.09;;;5.49;100.00
69060;BME280;56135;37.534;-122.308;2023-04-03T13:49:39;101853.91;;;5.37;100.00
69060;BME280;56135;37.534;-122.308;2023-04-03T13:52:28;101871.34;;;5.34;100.00
69060;BME280;56135;37.534;-122.308;2023-04-03T13:55:01;101884.50;;;5.36;100.00
69060;BME280;56135;37.534;-122.308;2023-04-03T13:57:29;101875.91;;;5.42;100.00
69060;BME280;56135;37.534;-122.308;2023-04-03T13:59:56;101877.72;;;5.44;100.00